Time;durP1;ratioP1;P1;durP2;ratioP2;P2;SDS_P1;SDS_P2;PMS_P1;PMS_P2;Temp;Humidity;BMP_temperature;BMP_pressure;BME280_temperature;BME280_humidity;BME280_pressure;Samples;Min_cycle;Max_cycle;Signal;HPM_P1;HPM_P2
2023/10/04 00:01:10;;;;;;;12.27;4.40;;;15.90;99.90;;;;;;5030927;28;20021;-75
2023/10/04 00:03:38;;;;;;;10.50;3.33;;;15.90;99.90;;;;;;5030910;28;20041;-75
2023/10/04 00:06:03;;;;;;;11.35;3.13;;;15.90;99.90;;;;;;5029545;28;20048;-74
2023/10/04 00:08:29;;;;;;;10.35;3.45;;;15.80;99.90;;;;;;5030633;28;20041;-76
2023/10/04 00:10:55;;;;;;;11.32;2.80;;;15.80;99.90;;;;;;5030641;28;20026;-74
2023/10/04 00:13:21;;;;;;;14.02;4.63;;;15.80;99.90;;;;;;5030715;28;20038;-74
2023/10/04 00:15:47;;;;;;;13.88;3.53;;;15.80;99.90;;;;;;5030442;28;20063;-74
2023/10/04 00:18:15;;;;;;;8.40;3.45;;;15.80;99.90;;;;;;5030388;28;20418;-75
2023/10/04 00:20:41;;;;;;;9.85;3.25;;;15.80;99.90;;;;;;5029107;28;20018;-76
2023/10/04 00:23:08;;;;;;;15.20;3.65;;;15.70;99.90;;;;;;5030297;28;20040;-75
2023/10/04 00:25:34;;;;;;;10.63;3.80;;;15.80;99.90;;;;;;5030467;28;20021;-74
2023/10/04 00:28:00;;;;;;;10.48;3.20;;;15.90;99.90;;;;;;5030346;28;20216;-73
2023/10/04 00:30:30;;;;;;;12.38;4.30;;;15.80;99.90;;;;;;5028913;28;20033;-74
2023/10/04 00:32:57;;;;;;;10.27;4.00;;;15.80;99.90;;;;;;5028763;28;20033;-74
2023/10/04 00:35:25;;;;;;;11.23;3.17;;;15.80;99.90;;;;;;5029162;28;20026;-74
2023/10/04 00:37:56;;;;;;;9.18;3.90;;;15.80;99.90;;;;;;5030183;28;20148;-75
2023/10/04 00:40:29;;;;;;;11.77;4.20;;;15.90;99.90;;;;;;5030244;28;20021;-74
2023/10/04 00:42:56;;;;;;;14.98;4.25;;;15.90;99.90;;;;;;5030238;28;20022;-74
2023/10/04 00:45:23;;;;;;;6.97;3.30;;;15.90;99.90;;;;;;5028918;28;20060;-74
2023/10/04 00:47:51;;;;;;;11.30;3.88;;;15.80;99.90;;;;;;5028755;28;20035;-73
2023/10/04 00:50:25;;;;;;;13.40;4.10;;;15.80;99.90;;;;;;5029910;28;20029;-73
2023/10/04 00:52:58;;;;;;;14.80;3.97;;;15.90;99.90;;;;;;5028902;28;20033;-73
2023/10/04 00:55:26;;;;;;;13.52;3.85;;;15.80;99.90;;;;;;5028640;28;20029;-74
2023/10/04 00:57:54;;;;;;;13.32;4.18;;;15.80;99.90;;;;;;5028420;28;20113;-74
2023/10/04 01:00:21;;;;;;;14.30;4.25;;;15.80;99.90;;;;;;5029670;28;20025;-74
2023/10/04 01:02:47;;;;;;;9.00;3.72;;;15.90;99.90;;;;;;5028587;28;20068;-74
2023/10/04 01:05:18;;;;;;;10.10;3.53;;;15.90;99.90;;;;;;5028419;28;20073;-74
2023/10/04 01:07:44;;;;;;;12.02;4.00;;;15.90;99.90;;;;;;5028517;28;20035;-73
2023/10/04 01:10:15;;;;;;;9.02;3.95;;;15.80;99.90;;;;;;5029437;28;20075;-75
2023/10/04 01:12:43;;;;;;;8.50;4.13;;;15.80;99.90;;;;;;5028239;28;20037;-74
2023/10/04 01:15:28;;;;;;;12.90;3.63;;;15.90;99.90;;;;;;5029448;28;20029;-74
2023/10/04 01:17:55;;;;;;;7.88;3.42;;;15.80;99.90;;;;;;5029366;28;20049;-74
2023/10/04 01:20:25;;;;;;;9.65;3.20;;;15.80;99.90;;;;;;5028077;28;20030;-74
2023/10/04 01:23:06;;;;;;;12.18;3.70;;;15.80;99.90;;;;;;5028045;28;20114;-74
2023/10/04 01:25:36;;;;;;;8.35;3.83;;;15.70;99.90;;;;;;5028057;28;20545;-74
2023/10/04 01:28:12;;;;;;;8.55;4.00;;;15.70;99.90;;;;;;5029395;28;20033;-72
2023/10/04 01:30:39;;;;;;;18.08;5.50;;;15.80;99.90;;;;;;5029448;28;20401;-75
2023/10/04 01:33:07;;;;;;;12.90;5.15;;;15.70;99.90;;;;;;5029439;28;20068;-74
2023/10/04 01:35:33;;;;;;;9.18;4.57;;;15.70;99.90;;;;;;5028020;28;20041;-75
2023/10/04 01:37:59;;;;;;;9.20;3.85;;;15.70;99.90;;;;;;5027900;28;20177;-74
2023/10/04 01:40:31;;;;;;;9.38;4.35;;;15.60;99.90;;;;;;5027433;28;20297;-74
2023/10/04 01:42:57;;;;;;;11.68;4.22;;;15.60;99.90;;;;;;5028406;28;20021;-74
2023/10/04 01:45:23;;;;;;;9.40;3.63;;;15.60;99.90;;;;;;5028988;28;20569;-75
2023/10/04 01:47:50;;;;;;;9.05;4.00;;;15.50;99.90;;;;;;5028882;28;20028;-74
2023/10/04 01:50:16;;;;;;;10.25;3.92;;;15.50;99.90;;;;;;5027468;28;20382;-75
2023/10/04 01:52:45;;;;;;;11.60;4.38;;;15.50;99.90;;;;;;5027599;28;20539;-75
2023/10/04 01:55:12;;;;;;;12.18;3.88;;;15.50;99.90;;;;;;5027608;28;20166;-75
2023/10/04 01:57:40;;;;;;;17.40;4.93;;;15.50;99.90;;;;;;5024275;28;20061;-74
2023/10/04 02:00:09;;;;;;;12.40;4.40;;;15.50;99.90;;;;;;5028673;28;20080;-74
2023/10/04 02:02:36;;;;;;;15.35;4.85;;;15.50;99.90;;;;;;5028633;28;20140;-73
2023/10/04 02:05:03;;;;;;;10.60;4.35;;;15.50;99.90;;;;;;5028656;28;20029;-74
2023/10/04 02:07:28;;;;;;;13.02;4.68;;;15.60;99.90;;;;;;5027309;28;20136;-74
2023/10/04 02:09:54;;;;;;;11.18;5.15;;;15.60;99.90;;;;;;5027396;28;20112;-74
2023/10/04 02:12:22;;;;;;;10.80;5.10;;;15.50;99.90;;;;;;5028629;28;20037;-75
2023/10/04 02:14:48;;;;;;;12.93;4.40;;;15.50;99.90;;;;;;5028755;28;20109;-75
2023/10/04 02:17:17;;;;;;;11.80;4.35;;;15.30;99.90;;;;;;5027141;28;20045;-74
2023/10/04 02:19:46;;;;;;;9.90;3.83;;;15.30;99.90;;;;;;5026611;28;20036;-73
2023/10/04 02:22:12;;;;;;;12.55;4.60;;;15.20;99.90;;;;;;5026901;28;20036;-74
2023/10/04 02:24:38;;;;;;;18.27;4.53;;;15.30;99.90;;;;;;5026884;28;20084;-74
2023/10/04 02:27:08;;;;;;;9.23;4.72;;;15.30;99.90;;;;;;5028515;28;20029;-74
2023/10/04 02:29:36;;;;;;;11.00;4.43;;;15.20;99.90;;;;;;5026687;28;20045;-75
2023/10/04 02:32:09;;;;;;;14.35;4.68;;;15.30;99.90;;;;;;5027135;28;20053;-75
2023/10/04 02:34:36;;;;;;;13.18;4.03;;;15.20;99.90;;;;;;5028273;28;20037;-74
2023/10/04 02:37:06;;;;;;;13.65;4.32;;;15.20;99.90;;;;;;5028144;28;20509;-74
2023/10/04 02:39:33;;;;;;;11.35;4.57;;;15.20;99.90;;;;;;5028821;28;20021;-74
2023/10/04 02:41:59;;;;;;;10.50;3.85;;;15.20;99.90;;;;;;5026957;28;20025;-75
2023/10/04 02:44:25;;;;;;;9.95;4.72;;;15.10;99.90;;;;;;5028151;28;20395;-75
2023/10/04 02:46:51;;;;;;;11.45;4.63;;;15.10;99.90;;;;;;5026717;28;20033;-75
2023/10/04 02:49:16;;;;;;;13.73;4.38;;;15.20;99.90;;;;;;5026917;28;20025;-75
2023/10/04 02:51:45;;;;;;;10.70;5.00;;;15.20;99.90;;;;;;5026601;28;20029;-75
2023/10/04 02:54:11;;;;;;;9.10;3.90;;;15.10;99.90;;;;;;5028836;28;20017;-74
2023/10/04 02:56:45;;;;;;;11.80;4.72;;;15.00;99.90;;;;;;5032108;28;20036;-75
2023/10/04 02:59:11;;;;;;;12.50;5.13;;;15.00;99.90;;;;;;5031985;28;20057;-75
2023/10/04 03:01:37;;;;;;;10.55;4.63;;;15.10;99.90;;;;;;5030785;28;20083;-74
2023/10/04 03:04:03;;;;;;;12.23;4.28;;;15.10;99.90;;;;;;5031980;28;20037;-74
2023/10/04 03:06:31;;;;;;;13.35;4.70;;;15.10;99.90;;;;;;5030757;28;20536;-74
2023/10/04 03:08:56;;;;;;;14.60;5.50;;;15.00;99.90;;;;;;5031875;28;20057;-73
2023/10/04 03:11:22;;;;;;;11.88;4.88;;;14.90;99.90;;;;;;5031464;28;20498;-73
2023/10/04 03:13:47;;;;;;;11.73;4.10;;;15.00;99.90;;;;;;5029974;28;20819;-74
2023/10/04 03:16:14;;;;;;;13.38;5.18;;;14.90;99.90;;;;;;5029812;28;20045;-74
2023/10/04 03:18:40;;;;;;;12.27;4.47;;;14.90;99.90;;;;;;5030014;28;20033;-74
2023/10/04 03:23:35;;;;;;;17.42;5.03;;;14.90;99.90;;;;;;5029854;28;20132;-74
2023/10/04 03:26:06;;;;;;;15.10;4.90;;;14.90;99.90;;;;;;5030091;28;20056;-74
2023/10/04 03:28:37;;;;;;;13.95;5.28;;;14.90;99.90;;;;;;5031169;28;20507;-74
2023/10/04 03:31:10;;;;;;;10.45;4.75;;;14.80;99.90;;;;;;5031478;28;20021;-74
2023/10/04 03:33:35;;;;;;;9.95;4.25;;;14.80;99.90;;;;;;5031281;28;20476;-74
2023/10/04 03:36:05;;;;;;;20.70;5.07;;;14.80;99.90;;;;;;5031291;28;20573;-74
2023/10/04 03:38:33;;;;;;;11.90;4.18;;;14.90;99.90;;;;;;5031193;28;20038;-74
2023/10/04 03:41:06;;;;;;;15.57;4.35;;;14.80;99.90;;;;;;5031312;28;20559;-75
2023/10/04 03:43:32;;;;;;;8.38;3.28;;;14.90;99.90;;;;;;5029997;28;20025;-75
2023/10/04 03:46:08;;;;;;;11.95;4.15;;;15.10;99.90;;;;;;5029976;28;20026;-74
2023/10/04 03:48:37;;;;;;;16.75;3.30;;;15.50;99.90;;;;;;5031204;28;20029;-74
2023/10/04 03:51:03;;;;;;;6.80;2.97;;;15.80;99.90;;;;;;5029759;28;20616;-74
2023/10/04 03:53:29;;;;;;;9.55;3.10;;;16.10;99.90;;;;;;5031151;28;20025;-75
2023/10/04 03:55:59;;;;;;;8.32;3.22;;;16.30;99.90;;;;;;5031008;28;20033;-75
2023/10/04 03:58:25;;;;;;;11.02;2.58;;;16.50;99.90;;;;;;5030907;28;20060;-75
2023/10/04 04:00:51;;;;;;;9.05;2.80;;;16.60;99.90;;;;;;5030912;28;20029;-74
2023/10/04 04:03:18;;;;;;;6.80;2.63;;;16.70;99.90;;;;;;5030750;28;20056;-75
2023/10/04 04:05:44;;;;;;;8.85;2.10;;;16.80;99.90;;;;;;5030291;28;20025;-75
2023/10/04 04:08:12;;;;;;;6.25;2.50;;;16.90;99.90;;;;;;5030691;28;20025;-75
2023/10/04 04:10:38;;;;;;;7.50;2.08;;;17.00;99.90;;;;;;5029063;28;20516;-74
2023/10/04 04:13:05;;;;;;;5.57;2.35;;;17.00;99.90;;;;;;5030679;28;20034;-74
2023/10/04 04:15:35;;;;;;;7.18;2.25;;;17.00;99.90;;;;;;5030464;28;20017;-75
2023/10/04 04:18:20;;;;;;;5.57;2.03;;;17.10;99.90;;;;;;5028987;28;20057;-74
2023/10/04 04:20:49;;;;;;;5.65;1.63;;;17.20;99.90;;;;;;5030525;28;20025;-74
2023/10/04 04:23:17;;;;;;;15.23;1.90;;;17.20;99.90;;;;;;5029111;28;20025;-75
2023/10/04 04:25:45;;;;;;;6.70;1.95;;;17.20;99.90;;;;;;5030391;28;20053;-75
2023/10/04 04:28:15;;;;;;;4.10;1.63;;;17.30;99.90;;;;;;5030124;28;20641;-75
2023/10/04 04:30:41;;;;;;;6.72;2.20;;;17.30;99.90;;;;;;5030356;28;20585;-75
2023/10/04 04:33:07;;;;;;;4.05;1.50;;;17.30;99.90;;;;;;5030341;28;20155;-75
2023/10/04 04:40:58;;;;;;;4.15;1.52;;;17.30;99.90;;;;;;5030422;28;20034;-75
2023/10/04 04:43:34;;;;;;;7.50;1.73;;;17.40;99.90;;;;;;5030281;28;20482;-74
2023/10/04 04:45:59;;;;;;;5.75;1.65;;;17.30;99.90;;;;;;5030183;28;20040;-74
2023/10/04 04:48:27;;;;;;;5.95;1.85;;;17.40;99.90;;;;;;5028697;28;20021;-74
2023/10/04 04:50:54;;;;;;;4.18;1.63;;;17.40;99.90;;;;;;5028600;28;20052;-74
2023/10/04 04:53:27;;;;;;;3.90;1.98;;;17.40;99.90;;;;;;5028465;28;20026;-75
2023/10/04 04:55:54;;;;;;;10.60;1.55;;;17.40;99.90;;;;;;5029790;28;20018;-75
2023/10/04 04:58:22;;;;;;;7.68;1.30;;;17.40;99.90;;;;;;5029527;28;20044;-74
2023/10/04 05:00:55;;;;;;;5.10;1.60;;;17.40;99.90;;;;;;5028323;28;20075;-75
2023/10/04 05:03:21;;;;;;;4.15;1.30;;;17.30;99.90;;;;;;5029785;28;20029;-75
2023/10/04 05:05:49;;;;;;;12.73;1.48;;;17.30;99.90;;;;;;5028227;28;20494;-75
2023/10/04 05:08:20;;;;;;;3.65;0.90;;;17.30;99.90;;;;;;5029443;28;20036;-74
2023/10/04 05:10:48;;;;;;;3.25;1.05;;;17.30;99.90;;;;;;5028366;28;20029;-75
2023/10/04 05:13:16;;;;;;;4.03;1.40;;;17.30;99.90;;;;;;5028147;28;20055;-74
2023/10/04 05:15:42;;;;;;;10.73;1.20;;;17.40;99.90;;;;;;5029606;28;20029;-74
2023/10/04 05:18:16;;;;;;;4.78;1.25;;;17.40;99.90;;;;;;5026951;28;20061;-75
2023/10/04 05:20:49;;;;;;;4.13;1.13;;;17.40;99.90;;;;;;5029523;28;20032;-74
2023/10/04 05:23:17;;;;;;;4.93;1.42;;;17.50;99.90;;;;;;5028208;28;20025;-74
2023/10/04 05:25:43;;;;;;;10.40;4.32;;;17.40;99.90;;;;;;5028003;28;20395;-75
2023/10/04 05:28:11;;;;;;;12.30;4.65;;;17.40;99.90;;;;;;5029229;28;20036;-75
2023/10/04 05:30:38;;;;;;;8.50;4.68;;;17.40;99.90;;;;;;5029231;28;20025;-75
2023/10/04 05:33:06;;;;;;;13.52;4.00;;;17.50;99.90;;;;;;5029157;28;20110;-75
2023/10/04 05:35:35;;;;;;;13.20;6.38;;;17.50;99.90;;;;;;5027737;28;20117;-74
2023/10/04 05:38:04;;;;;;;7.95;3.95;;;17.50;99.90;;;;;;5027678;28;20034;-74
2023/10/04 05:40:38;;;;;;;6.72;2.60;;;17.60;99.90;;;;;;5027651;28;20033;-75
2023/10/04 05:43:05;;;;;;;5.95;2.28;;;17.70;99.90;;;;;;5027640;28;20466;-75
2023/10/04 05:45:31;;;;;;;9.80;5.47;;;17.70;99.90;;;;;;5028990;28;20120;-75
2023/10/04 05:47:57;;;;;;;6.32;3.75;;;17.70;99.90;;;;;;5027555;28;20418;-75
2023/10/04 05:50:23;;;;;;;5.15;1.58;;;17.70;99.90;;;;;;5028817;28;20037;-74
2023/10/04 05:52:50;;;;;;;5.13;1.35;;;17.80;99.90;;;;;;5028799;28;20025;-74
2023/10/04 05:55:20;;;;;;;5.82;1.90;;;17.80;99.90;;;;;;5027595;28;20056;-73
2023/10/04 05:57:52;;;;;;;5.85;2.35;;;17.80;99.90;;;;;;5028542;28;20557;-74
2023/10/04 06:00:35;;;;;;;6.55;2.10;;;17.70;99.90;;;;;;5028705;28;20417;-75
2023/10/04 06:03:06;;;;;;;12.80;6.35;;;17.80;99.90;;;;;;5027314;28;20037;-75
2023/10/04 06:05:35;;;;;;;59.95;34.50;;;17.80;99.90;;;;;;5027281;28;20029;-75
2023/10/04 06:08:06;;;;;;;57.25;30.25;;;17.80;99.90;;;;;;5027554;28;20037;-74
2023/10/04 06:10:33;;;;;;;41.72;22.67;;;17.80;99.90;;;;;;5027180;28;20461;-75
2023/10/04 06:12:59;;;;;;;41.03;20.55;;;17.80;99.90;;;;;;5028667;28;20030;-75
2023/10/04 06:15:25;;;;;;;27.08;12.32;;;17.90;99.90;;;;;;5028584;28;20807;-75
2023/10/04 06:17:52;;;;;;;18.35;9.85;;;17.90;99.90;;;;;;5028466;28;20107;-75
2023/10/04 06:20:25;;;;;;;25.25;13.48;;;18.00;99.90;;;;;;5028414;28;20490;-74
2023/10/04 06:22:59;;;;;;;3.88;2.30;;;18.10;99.90;;;;;;5026788;28;20056;-74
2023/10/04 06:25:29;;;;;;;7.43;1.60;;;18.10;99.90;;;;;;5028427;28;20030;-75
2023/10/04 06:27:59;;;;;;;3.95;1.55;;;18.20;99.90;;;;;;5028214;28;20029;-75
2023/10/04 06:30:31;;;;;;;2.55;1.30;;;18.20;99.90;;;;;;5028120;28;20038;-75
2023/10/04 06:32:59;;;;;;;3.08;1.10;;;18.30;99.90;;;;;;5028245;28;20026;-74
2023/10/04 06:35:27;;;;;;;3.10;1.25;;;18.30;99.90;;;;;;5028090;28;20033;-74
2023/10/04 06:37:57;;;;;;;2.60;1.02;;;18.30;99.90;;;;;;5026992;28;20048;-75
2023/10/04 06:40:24;;;;;;;5.82;0.80;;;18.40;99.90;;;;;;5027647;28;20641;-74
2023/10/04 06:42:52;;;;;;;4.38;1.20;;;18.40;99.90;;;;;;5026654;28;20534;-74
2023/10/04 06:45:20;;;;;;;3.25;1.20;;;18.40;99.40;;;;;;5028140;28;20083;-75
2023/10/04 06:47:50;;;;;;;4.68;2.03;;;18.40;99.60;;;;;;5028086;28;20502;-74
2023/10/04 06:50:21;;;;;;;5.97;1.30;;;18.50;99.80;;;;;;5028242;28;20104;-74
2023/10/04 06:52:50;;;;;;;6.15;1.25;;;18.40;99.70;;;;;;5028005;28;20123;-74
2023/10/04 06:55:20;;;;;;;6.13;1.63;;;18.60;99.40;;;;;;5028264;28;20034;-75
2023/10/04 06:57:47;;;;;;;4.13;1.55;;;18.60;98.90;;;;;;5027971;28;20528;-74
2023/10/04 07:00:15;;;;;;;2.45;0.90;;;18.60;99.50;;;;;;5026724;28;20052;-75
2023/10/04 07:02:44;;;;;;;3.90;1.67;;;18.70;99.50;;;;;;5028075;28;20036;-74
2023/10/04 07:05:14;;;;;;;4.95;1.88;;;18.70;98.80;;;;;;5028023;28;20040;-75
2023/10/04 07:07:41;;;;;;;12.38;1.80;;;18.80;99.00;;;;;;5028068;28;20034;-75
2023/10/04 07:10:07;;;;;;;3.33;0.77;;;18.80;98.80;;;;;;5026631;28;20029;-74
2023/10/04 07:12:34;;;;;;;5.88;0.95;;;19.10;98.30;;;;;;5028016;28;20029;-74
2023/10/04 07:15:00;;;;;;;12.00;2.03;;;19.00;97.90;;;;;;5026671;28;20055;-75
2023/10/04 07:17:29;;;;;;;3.67;1.50;;;19.00;98.30;;;;;;5027603;28;20053;-75
2023/10/04 07:19:58;;;;;;;3.33;0.75;;;19.00;98.60;;;;;;5027863;28;20033;-75
2023/10/04 07:22:29;;;;;;;2.70;0.90;;;19.10;98.30;;;;;;5027821;28;20053;-75
2023/10/04 07:24:58;;;;;;;3.78;0.82;;;19.20;97.60;;;;;;5028246;28;20030;-75
2023/10/04 07:27:24;;;;;;;3.10;0.70;;;19.20;97.40;;;;;;5027793;28;20096;-73
2023/10/04 07:29:50;;;;;;;3.35;0.80;;;19.10;97.30;;;;;;5028044;28;20076;-75
2023/10/04 07:32:16;;;;;;;8.85;2.00;;;19.20;97.60;;;;;;5027764;28;20132;-75
2023/10/04 07:34:42;;;;;;;12.85;0.98;;;19.10;97.20;;;;;;5026154;28;20096;-75
2023/10/04 07:37:08;;;;;;;3.72;0.63;;;19.00;97.10;;;;;;5026140;28;20422;-75
2023/10/04 07:39:35;;;;;;;2.22;0.60;;;19.00;97.40;;;;;;5027682;28;20036;-75
2023/10/04 07:42:02;;;;;;;2.45;0.82;;;19.00;97.40;;;;;;5028536;28;20052;-74
2023/10/04 07:44:30;;;;;;;2.15;0.50;;;19.10;96.90;;;;;;5029899;28;20063;-75
2023/10/04 07:46:59;;;;;;;6.30;0.82;;;19.10;97.20;;;;;;5029803;28;20036;-75
2023/10/04 07:49:24;;;;;;;2.38;0.65;;;18.90;97.20;;;;;;5030012;28;20449;-75
2023/10/04 07:51:50;;;;;;;2.22;0.60;;;18.90;97.10;;;;;;5029718;28;20053;-75
2023/10/04 07:54:18;;;;;;;4.28;0.85;;;18.80;97.50;;;;;;5030995;28;20092;-75
2023/10/04 07:56:44;;;;;;;1.33;0.60;;;18.80;97.80;;;;;;5029809;28;20037;-75
2023/10/04 07:59:10;;;;;;;5.00;1.02;;;18.80;97.70;;;;;;5029532;28;20040;-75
2023/10/04 08:01:39;;;;;;;2.67;0.68;;;18.90;97.20;;;;;;5030759;28;20025;-75
2023/10/04 08:04:07;;;;;;;2.35;0.90;;;19.00;97.20;;;;;;5030820;28;20558;-75
2023/10/04 08:06:33;;;;;;;2.55;0.75;;;19.20;96.70;;;;;;5030747;28;20022;-74
2023/10/04 08:08:58;;;;;;;4.38;0.95;;;19.30;96.10;;;;;;5029540;28;20080;-75
2023/10/04 08:11:24;;;;;;;5.10;1.10;;;19.30;95.70;;;;;;5029448;28;20482;-74
2023/10/04 08:13:50;;;;;;;3.00;0.80;;;19.50;94.80;;;;;;5029533;28;20120;-75
2023/10/04 08:16:16;;;;;;;7.60;0.73;;;19.70;94.60;;;;;;5029095;28;20148;-75
2023/10/04 08:18:41;;;;;;;3.58;0.90;;;20.00;93.20;;;;;;5030610;28;20124;-75
2023/10/04 08:21:07;;;;;;;2.17;0.90;;;20.20;92.80;;;;;;5029126;28;20029;-74
2023/10/04 08:23:33;;;;;;;7.55;1.17;;;20.50;91.10;;;;;;5030419;28;20087;-74
2023/10/04 08:25:59;;;;;;;4.65;1.27;;;21.10;89.40;;;;;;5029198;28;20168;-74
2023/10/04 08:28:24;;;;;;;3.80;1.25;;;21.90;86.30;;;;;;5030415;28;20036;-75
2023/10/04 08:30:51;;;;;;;5.25;1.48;;;22.90;79.00;;;;;;5030331;28;20041;-75
2023/10/04 08:33:29;;;;;;;4.00;1.10;;;23.60;74.70;;;;;;5029899;28;20491;-76
2023/10/04 08:35:55;;;;;;;3.42;0.60;;;24.20;68.60;;;;;;5030307;28;20025;-76
2023/10/04 08:38:22;;;;;;;1.95;0.77;;;24.70;65.60;;;;;;5030412;28;20383;-75
2023/10/04 08:40:47;;;;;;;1.70;0.75;;;25.10;62.60;;;;;;5030134;28;20091;-74
2023/10/04 08:43:13;;;;;;;4.10;0.90;;;25.60;59.80;;;;;;5030184;28;20505;-74
2023/10/04 08:45:42;;;;;;;34.95;4.43;;;25.60;57.60;;;;;;5028698;28;20028;-75
2023/10/04 08:48:09;;;;;;;58.22;6.63;;;25.40;57.40;;;;;;5029885;28;20446;-75
2023/10/04 08:50:54;;;;;;;3.72;1.23;;;24.90;58.10;;;;;;5028735;28;20041;-75
2023/10/04 08:53:26;;;;;;;1.57;0.80;;;24.90;57.00;;;;;;5029926;28;20097;-74
2023/10/04 08:55:59;;;;;;;3.30;0.80;;;24.90;58.00;;;;;;5029818;28;20026;-74
2023/10/04 08:58:26;;;;;;;2.25;0.60;;;24.80;57.00;;;;;;5028640;28;20072;-74
2023/10/04 09:00:52;;;;;;;3.95;1.08;;;24.30;58.50;;;;;;5029464;28;20032;-75
2023/10/04 09:03:23;;;;;;;2.85;0.50;;;24.60;56.80;;;;;;5029702;28;20037;-75
2023/10/04 09:05:52;;;;;;;5.15;0.75;;;25.10;56.00;;;;;;5029814;28;20025;-75
2023/10/04 09:08:18;;;;;;;1.50;0.60;;;25.30;55.90;;;;;;5029733;28;20067;-75
2023/10/04 09:10:44;;;;;;;1.58;0.77;;;25.60;54.30;;;;;;5029746;28;20014;-75
2023/10/04 09:13:10;;;;;;;3.30;1.10;;;25.90;53.60;;;;;;5028334;28;20114;-75
2023/10/04 09:15:37;;;;;;;1.33;0.80;;;26.50;52.20;;;;;;5028277;28;20088;-75
2023/10/04 09:18:04;;;;;;;2.95;0.90;;;26.90;51.20;;;;;;5027823;28;20049;-74
2023/10/04 09:20:32;;;;;;;2.42;0.93;;;27.40;48.30;;;;;;5029415;28;20017;-75
2023/10/04 09:23:14;;;;;;;2.20;0.80;;;27.60;47.00;;;;;;5027877;28;20029;-75
2023/10/04 09:25:40;;;;;;;3.47;1.02;;;27.80;46.70;;;;;;5029303;28;20090;-74
2023/10/04 09:28:11;;;;;;;1.85;0.85;;;28.00;46.00;;;;;;5029313;28;20036;-74
2023/10/04 09:30:36;;;;;;;1.65;0.82;;;28.30;45.60;;;;;;5027989;28;20041;-75
2023/10/04 09:33:20;;;;;;;3.53;1.08;;;28.90;45.10;;;;;;5027823;28;20037;-75
2023/10/04 09:35:45;;;;;;;1.50;0.70;;;29.00;43.00;;;;;;5027852;28;20029;-74
2023/10/04 09:38:15;;;;;;;2.65;1.15;;;29.20;43.30;;;;;;5029028;28;20399;-74
2023/10/04 09:40:55;;;;;;;3.38;1.00;;;29.30;42.90;;;;;;5029024;28;20068;-74
2023/10/04 09:43:36;;;;;;;2.42;0.98;;;29.50;41.60;;;;;;5028993;28;20033;-75
2023/10/04 09:46:12;;;;;;;2.60;1.08;;;29.60;42.20;;;;;;5028952;28;20509;-75
2023/10/04 09:48:44;;;;;;;5.57;1.42;;;29.90;42.50;;;;;;5027900;28;20033;-76
2023/10/04 09:51:10;;;;;;;5.15;0.93;;;30.00;42.30;;;;;;5028747;28;20037;-75
2023/10/04 09:53:39;;;;;;;2.90;0.90;;;30.20;41.70;;;;;;5027442;28;20033;-74
2023/10/04 09:56:07;;;;;;;2.05;0.90;;;30.40;41.20;;;;;;5027472;28;20041;-74
2023/10/04 09:58:33;;;;;;;2.30;1.10;;;30.40;41.10;;;;;;5027285;28;20080;-74
2023/10/04 10:01:12;;;;;;;1.60;0.80;;;30.40;41.50;;;;;;5027397;28;20021;-75
2023/10/04 10:04:07;;;;;;;1.70;0.80;;;30.60;41.70;;;;;;5028131;28;20026;-75
2023/10/04 10:06:45;;;;;;;2.30;0.98;;;30.40;41.60;;;;;;5028649;28;20108;-75
2023/10/04 10:09:16;;;;;;;2.70;0.98;;;29.80;41.70;;;;;;5028617;28;20029;-75
2023/10/04 10:11:45;;;;;;;2.47;0.80;;;29.00;42.40;;;;;;5028597;28;20037;-75
2023/10/04 10:14:14;;;;;;;2.65;1.10;;;28.20;43.90;;;;;;5028501;28;20100;-75
2023/10/04 10:16:42;;;;;;;3.38;1.30;;;27.40;45.70;;;;;;5027015;28;20418;-74
2023/10/04 10:19:09;;;;;;;4.88;2.42;;;26.80;47.00;;;;;;5028254;28;20037;-73
2023/10/04 10:22:08;;;;;;;6.75;1.10;;;26.50;47.90;;;;;;5028463;28;20029;-74
2023/10/04 10:24:34;;;;;;;4.40;0.90;;;26.10;48.20;;;;;;5027105;28;20120;-75
2023/10/04 10:27:20;;;;;;;3.67;1.25;;;25.80;48.30;;;;;;5026945;28;20022;-75
2023/10/04 10:29:46;;;;;;;7.97;1.45;;;25.70;49.60;;;;;;5028324;28;20052;-75
2023/10/04 10:32:23;;;;;;;5.55;1.85;;;25.50;51.00;;;;;;5027023;28;20875;-74
2023/10/04 10:34:51;;;;;;;6.65;1.85;;;25.40;52.40;;;;;;5028349;28;20466;-75
2023/10/04 10:37:18;;;;;;;6.13;1.50;;;25.30;53.60;;;;;;5026754;28;20586;-75
2023/10/04 10:39:49;;;;;;;5.88;1.90;;;25.20;53.00;;;;;;5028198;28;20034;-75
2023/10/04 10:42:15;;;;;;;4.80;1.35;;;25.00;53.90;;;;;;5027155;28;20091;-74
2023/10/04 10:44:41;;;;;;;7.03;1.58;;;24.80;54.40;;;;;;5028340;28;20029;-75
2023/10/04 10:47:14;;;;;;;10.00;2.45;;;24.70;54.60;;;;;;5026948;28;20050;-74
2023/10/04 10:49:44;;;;;;;2.78;1.30;;;24.60;53.70;;;;;;5028107;28;20045;-74
2023/10/04 10:52:23;;;;;;;9.27;4.05;;;24.50;54.30;;;;;;5028159;28;20100;-75
2023/10/04 10:54:53;;;;;;;6.75;1.90;;;24.40;55.50;;;;;;5026917;28;20037;-75
2023/10/04 10:57:20;;;;;;;5.95;1.92;;;24.40;54.90;;;;;;5026721;28;20029;-75
2023/10/04 10:59:46;;;;;;;6.38;1.95;;;24.40;55.10;;;;;;5028065;28;20108;-74
2023/10/04 11:02:12;;;;;;;5.38;2.33;;;24.40;54.80;;;;;;5027999;28;20517;-74
2023/10/04 11:04:38;;;;;;;5.70;3.10;;;24.50;52.80;;;;;;5026793;28;20030;-74
2023/10/04 11:07:06;;;;;;;8.73;1.90;;;24.50;52.20;;;;;;5028114;28;20033;-75
2023/10/04 11:09:37;;;;;;;3.90;1.83;;;24.40;51.80;;;;;;5027894;28;20030;-75
2023/10/04 11:12:07;;;;;;;4.68;1.30;;;24.40;52.30;;;;;;5028085;28;20065;-75
2023/10/04 11:14:34;;;;;;;19.67;2.03;;;24.30;51.80;;;;;;5027963;28;20117;-76
2023/10/04 11:17:01;;;;;;;2.72;1.35;;;24.30;51.50;;;;;;5029828;28;20045;-74
2023/10/04 11:19:27;;;;;;;2.42;1.05;;;24.30;50.40;;;;;;5031539;28;20525;-75
2023/10/04 11:21:52;;;;;;;4.15;1.27;;;24.20;50.30;;;;;;5030501;28;20025;-75
2023/10/04 11:24:20;;;;;;;3.80;1.17;;;24.10;51.30;;;;;;5031549;28;20033;-75
2023/10/04 11:26:46;;;;;;;3.55;1.42;;;24.10;50.90;;;;;;5031480;28;20119;-74
2023/10/04 11:29:13;;;;;;;3.58;1.40;;;24.10;50.30;;;;;;5030119;28;20168;-74
2023/10/04 11:31:39;;;;;;;4.63;2.80;;;24.10;50.40;;;;;;5031351;28;20022;-74
2023/10/04 11:34:05;;;;;;;9.13;1.98;;;24.00;50.30;;;;;;5030320;28;20030;-75
2023/10/04 11:36:35;;;;;;;6.63;0.93;;;23.90;50.70;;;;;;5031387;28;20037;-75
2023/10/04 11:39:06;;;;;;;2.72;1.00;;;23.90;50.70;;;;;;5029950;28;20144;-74
2023/10/04 11:41:31;;;;;;;2.97;1.38;;;23.80;50.40;;;;;;5031252;28;20025;-75
2023/10/04 11:44:02;;;;;;;2.20;1.00;;;23.70;49.70;;;;;;5031193;28;20030;-76
2023/10/04 11:46:28;;;;;;;2.13;0.85;;;23.70;50.30;;;;;;5031324;28;20025;-75
2023/10/04 11:49:13;;;;;;;4.10;1.20;;;23.70;50.40;;;;;;5031171;28;20056;-76
2023/10/04 11:51:39;;;;;;;6.15;1.23;;;23.70;50.30;;;;;;5031565;28;20060;-74
2023/10/04 11:54:05;;;;;;;2.85;1.10;;;23.80;50.10;;;;;;5030978;28;20018;-75
2023/10/04 11:56:41;;;;;;;3.08;0.60;;;23.80;49.80;;;;;;5031260;28;20068;-75
2023/10/04 11:59:08;;;;;;;4.30;1.00;;;23.70;49.20;;;;;;5030792;28;20091;-74
2023/10/04 12:01:47;;;;;;;6.25;1.10;;;23.80;50.30;;;;;;5030705;28;20116;-74
2023/10/04 12:04:16;;;;;;;4.63;1.20;;;23.90;49.90;;;;;;5030858;28;20033;-75
2023/10/04 12:06:42;;;;;;;3.95;1.08;;;24.10;50.10;;;;;;5030857;28;20457;-74
2023/10/04 12:09:08;;;;;;;3.58;1.17;;;24.10;49.10;;;;;;5029429;28;20506;-75
2023/10/04 12:11:38;;;;;;;6.43;1.02;;;24.10;49.40;;;;;;5030731;28;20029;-75
2023/10/04 12:14:09;;;;;;;3.60;1.05;;;24.10;48.60;;;;;;5030744;28;20030;-76
2023/10/04 12:16:37;;;;;;;7.57;1.00;;;24.10;48.20;;;;;;5029540;28;20720;-75
2023/10/04 12:19:03;;;;;;;2.90;0.98;;;24.10;47.50;;;;;;5030493;28;20533;-75
2023/10/04 12:21:30;;;;;;;4.97;0.90;;;24.10;46.60;;;;;;5030533;28;20060;-74
2023/10/04 12:23:55;;;;;;;3.88;1.00;;;23.70;47.70;;;;;;5029342;28;20456;-74
2023/10/04 12:26:22;;;;;;;7.85;1.48;;;23.60;48.50;;;;;;5030417;28;20026;-74
2023/10/04 12:28:48;;;;;;;2.95;0.88;;;23.60;48.10;;;;;;5029769;28;20080;-74
2023/10/04 12:31:15;;;;;;;2.72;1.15;;;23.70;48.50;;;;;;5029051;28;20033;-75
2023/10/04 12:33:40;;;;;;;2.53;0.82;;;23.80;48.00;;;;;;5030281;28;20104;-75
2023/10/04 12:36:06;;;;;;;9.88;1.23;;;23.90;47.40;;;;;;5030318;28;20583;-74
2023/10/04 12:38:32;;;;;;;2.67;0.93;;;24.00;46.80;;;;;;5030093;28;20038;-75
2023/10/04 12:40:59;;;;;;;2.20;0.82;;;23.90;47.00;;;;;;5030444;28;20026;-75
2023/10/04 12:43:24;;;;;;;7.50;1.17;;;23.90;47.50;;;;;;5030142;28;20029;-75
2023/10/04 12:45:57;;;;;;;2.63;1.00;;;23.90;47.90;;;;;;5028695;28;20473;-74
2023/10/04 12:48:23;;;;;;;3.08;1.10;;;23.70;48.20;;;;;;5028589;28;20038;-74
2023/10/04 12:50:49;;;;;;;4.65;1.02;;;23.80;48.20;;;;;;5029957;28;20027;-75
2023/10/04 12:53:16;;;;;;;3.25;1.05;;;23.90;47.90;;;;;;5028644;28;20391;-75
2023/10/04 12:55:47;;;;;;;4.20;1.00;;;24.00;47.00;;;;;;5028547;28;20030;-74
2023/10/04 12:58:13;;;;;;;3.75;1.33;;;23.90;47.00;;;;;;5028376;28;20599;-75